BAW13K EGGP-EGSS
Flight info
| Callsign | BAW13K |
|---|---|
| Flight time | 0h 36m |
| Altitude | 19000 |
| Route | NANTI L8 HON L15 FINMA |
| Aircraft | A320/M-SDE3FGHIRWY/LB1 |
Departure
| Time | 2026-05-04 20:48 |
|---|---|
| Airport | Liverpool John Lennon Airport (EGGP) |
Arrival
| Time | 2026-05-04 21:24 |
|---|---|
| Airport | London Stansted Airport (EGSS) |
| Time | Latitude | Longitude | Altitude | Speed | Heading |
|---|---|---|---|---|---|
| 2026-05-04 20:19 | 53.33662 | -2.85586 | 89 ft | 0 kts | 356° |
| 2026-05-04 20:40 | 53.33645 | -2.85584 | 90 ft | 4 kts | 347° |
| 2026-05-04 20:40 | 53.33621 | -2.85567 | 87 ft | 4 kts | 312° |
| 2026-05-04 20:40 | 53.33613 | -2.85540 | 87 ft | 0 kts | 266° |
| 2026-05-04 20:40 | 53.33613 | -2.85539 | 87 ft | 0 kts | 266° |
| 2026-05-04 20:43 | 53.33613 | -2.85540 | 87 ft | 0 kts | 266° |
| 2026-05-04 20:43 | 53.33611 | -2.85561 | 91 ft | 3 kts | 258° |
| 2026-05-04 20:43 | 53.33601 | -2.85615 | 87 ft | 6 kts | 261° |
| 2026-05-04 20:44 | 53.33605 | -2.85702 | 85 ft | 9 kts | 272° |
| 2026-05-04 20:44 | 53.33601 | -2.85822 | 85 ft | 12 kts | 266° |
| 2026-05-04 20:44 | 53.33562 | -2.85941 | 85 ft | 14 kts | 187° |
| 2026-05-04 20:44 | 53.33489 | -2.85858 | 85 ft | 15 kts | 91° |
| 2026-05-04 20:45 | 53.33499 | -2.85663 | 86 ft | 18 kts | 86° |
| 2026-05-04 20:45 | 53.33507 | -2.85429 | 84 ft | 22 kts | 85° |
| 2026-05-04 20:45 | 53.33519 | -2.85162 | 87 ft | 24 kts | 89° |
| 2026-05-04 20:45 | 53.33534 | -2.84874 | 85 ft | 26 kts | 86° |
| 2026-05-04 20:46 | 53.33548 | -2.84539 | 79 ft | 30 kts | 85° |
| 2026-05-04 20:46 | 53.33563 | -2.84230 | 78 ft | 28 kts | 87° |
| 2026-05-04 20:46 | 53.33579 | -2.83892 | 77 ft | 31 kts | 86° |
| 2026-05-04 20:46 | 53.33587 | -2.83687 | 81 ft | 11 kts | 86° |
| 2026-05-04 20:47 | 53.33529 | -2.83629 | 81 ft | 14 kts | 181° |
| 2026-05-04 20:47 | 53.33442 | -2.83625 | 72 ft | 5 kts | 178° |
| 2026-05-04 20:47 | 53.33425 | -2.83667 | 75 ft | 6 kts | 260° |
| 2026-05-04 20:47 | 53.33421 | -2.83745 | 77 ft | 9 kts | 265° |
| 2026-05-04 20:48 | 53.33402 | -2.84159 | 77 ft | 74 kts | 265° |
| 2026-05-04 20:48 | 53.33347 | -2.85373 | 85 ft | 135 kts | 265° |
| 2026-05-04 20:48 | 53.33281 | -2.87102 | 454 ft | 150 kts | 265° |
| 2026-05-04 20:48 | 53.33187 | -2.88832 | 1146 ft | 150 kts | 264° |
| 2026-05-04 20:49 | 53.33076 | -2.90642 | 1633 ft | 161 kts | 264° |
| 2026-05-04 20:49 | 53.32772 | -2.92540 | 1982 ft | 183 kts | 243° |
| 2026-05-04 20:49 | 53.31941 | -2.94290 | 2345 ft | 206 kts | 219° |
| 2026-05-04 20:49 | 53.30579 | -2.95322 | 2792 ft | 229 kts | 188° |
| 2026-05-04 20:50 | 53.28940 | -2.95012 | 3389 ft | 250 kts | 157° |
| 2026-05-04 20:50 | 53.27544 | -2.93207 | 3902 ft | 261 kts | 127° |
| 2026-05-04 20:50 | 53.26843 | -2.90437 | 3872 ft | 261 kts | 103° |
| 2026-05-04 20:50 | 53.26465 | -2.87525 | 4026 ft | 258 kts | 103° |
| 2026-05-04 20:51 | 53.25960 | -2.84645 | 4025 ft | 260 kts | 111° |
| 2026-05-04 20:51 | 53.25150 | -2.81972 | 3955 ft | 258 kts | 123° |
| 2026-05-04 20:51 | 53.24074 | -2.79543 | 4531 ft | 261 kts | 128° |
| 2026-05-04 20:51 | 53.22966 | -2.77138 | 5621 ft | 262 kts | 127° |
| 2026-05-04 20:52 | 53.21856 | -2.74693 | 6622 ft | 266 kts | 127° |
| 2026-05-04 20:52 | 53.20737 | -2.72204 | 7583 ft | 270 kts | 127° |
| 2026-05-04 20:52 | 53.19990 | -2.70536 | 8206 ft | 273 kts | 127° |
| 2026-05-04 20:52 | 53.18845 | -2.67984 | 9120 ft | 277 kts | 127° |
| 2026-05-04 20:53 | 53.17675 | -2.65396 | 10007 ft | 281 kts | 127° |
| 2026-05-04 20:53 | 53.16463 | -2.62725 | 10529 ft | 300 kts | 127° |
| 2026-05-04 20:53 | 53.15154 | -2.59838 | 10833 ft | 324 kts | 127° |
| 2026-05-04 20:53 | 53.13643 | -2.56884 | 11121 ft | 346 kts | 136° |
| 2026-05-04 20:54 | 53.11749 | -2.54337 | 11694 ft | 354 kts | 145° |
| 2026-05-04 20:54 | 53.09719 | -2.51961 | 12406 ft | 359 kts | 145° |
| 2026-05-04 20:54 | 53.07672 | -2.49553 | 13140 ft | 363 kts | 145° |
| 2026-05-04 20:54 | 53.05603 | -2.47105 | 13861 ft | 367 kts | 144° |
| 2026-05-04 20:55 | 53.03514 | -2.44636 | 14567 ft | 371 kts | 145° |
| 2026-05-04 20:55 | 53.01400 | -2.42145 | 15241 ft | 374 kts | 145° |
| 2026-05-04 20:55 | 52.99266 | -2.39630 | 15877 ft | 378 kts | 145° |
| 2026-05-04 20:55 | 52.97111 | -2.37098 | 16511 ft | 382 kts | 145° |
| 2026-05-04 20:56 | 52.94925 | -2.34543 | 17164 ft | 386 kts | 145° |
| 2026-05-04 20:56 | 52.92722 | -2.31970 | 17803 ft | 389 kts | 145° |
| 2026-05-04 20:56 | 52.90500 | -2.29377 | 18441 ft | 393 kts | 145° |
| 2026-05-04 20:56 | 52.88252 | -2.26756 | 18868 ft | 396 kts | 145° |
| 2026-05-04 20:57 | 52.85999 | -2.24125 | 18993 ft | 400 kts | 145° |
| 2026-05-04 20:57 | 52.83665 | -2.21405 | 19013 ft | 420 kts | 145° |
| 2026-05-04 20:57 | 52.81222 | -2.18568 | 19010 ft | 435 kts | 145° |
| 2026-05-04 20:57 | 52.78728 | -2.15686 | 19009 ft | 439 kts | 145° |
| 2026-05-04 20:58 | 52.76224 | -2.12791 | 19009 ft | 440 kts | 145° |
| 2026-05-04 20:58 | 52.73715 | -2.09889 | 19009 ft | 440 kts | 145° |
| 2026-05-04 20:58 | 52.71210 | -2.06990 | 19009 ft | 440 kts | 145° |
| 2026-05-04 20:58 | 52.68733 | -2.04130 | 19009 ft | 440 kts | 145° |
| 2026-05-04 20:59 | 52.66224 | -2.01244 | 19009 ft | 440 kts | 145° |
| 2026-05-04 20:59 | 52.64203 | -1.98921 | 19009 ft | 441 kts | 145° |
| 2026-05-04 20:59 | 52.61691 | -1.96034 | 19009 ft | 440 kts | 145° |
| 2026-05-04 20:59 | 52.59177 | -1.93146 | 19008 ft | 440 kts | 145° |
| 2026-05-04 21:00 | 52.56665 | -1.90263 | 19005 ft | 440 kts | 145° |
| 2026-05-04 21:00 | 52.54150 | -1.87385 | 19003 ft | 440 kts | 145° |
| 2026-05-04 21:00 | 52.51635 | -1.84515 | 19004 ft | 440 kts | 145° |
| 2026-05-04 21:00 | 52.49118 | -1.81652 | 19002 ft | 440 kts | 145° |
| 2026-05-04 21:01 | 52.46606 | -1.78796 | 19000 ft | 440 kts | 145° |
| 2026-05-04 21:01 | 52.44093 | -1.75938 | 19000 ft | 440 kts | 145° |
| 2026-05-04 21:01 | 52.41576 | -1.73079 | 18999 ft | 440 kts | 145° |
| 2026-05-04 21:01 | 52.39066 | -1.70228 | 18996 ft | 440 kts | 145° |
| 2026-05-04 21:02 | 52.36562 | -1.67342 | 18995 ft | 440 kts | 142° |
| 2026-05-04 21:02 | 52.34288 | -1.64015 | 18994 ft | 440 kts | 134° |
| 2026-05-04 21:02 | 52.32174 | -1.60378 | 18997 ft | 440 kts | 134° |
| 2026-05-04 21:02 | 52.30062 | -1.56758 | 18997 ft | 440 kts | 134° |
| 2026-05-04 21:03 | 52.27949 | -1.53149 | 18999 ft | 440 kts | 134° |
| 2026-05-04 21:03 | 52.25825 | -1.49538 | 19000 ft | 440 kts | 134° |
| 2026-05-04 21:03 | 52.23706 | -1.45937 | 19001 ft | 440 kts | 134° |
| 2026-05-04 21:03 | 52.21584 | -1.42333 | 19000 ft | 440 kts | 134° |
| 2026-05-04 21:04 | 52.19464 | -1.38735 | 19002 ft | 440 kts | 134° |
| 2026-05-04 21:04 | 52.17341 | -1.35137 | 18998 ft | 440 kts | 134° |
| 2026-05-04 21:04 | 52.15261 | -1.31614 | 18774 ft | 422 kts | 134° |
| 2026-05-04 21:04 | 52.13252 | -1.28217 | 18524 ft | 414 kts | 134° |
| 2026-05-04 21:05 | 52.11261 | -1.24861 | 18274 ft | 411 kts | 134° |
| 2026-05-04 21:05 | 52.09280 | -1.21526 | 18023 ft | 409 kts | 134° |
| 2026-05-04 21:05 | 52.07315 | -1.18223 | 17492 ft | 404 kts | 134° |
| 2026-05-04 21:05 | 52.05366 | -1.14948 | 16865 ft | 402 kts | 134° |
| 2026-05-04 21:06 | 52.03434 | -1.11707 | 16251 ft | 398 kts | 134° |
| 2026-05-04 21:06 | 52.01659 | -1.08357 | 15601 ft | 396 kts | 123° |
| 2026-05-04 21:06 | 52.00458 | -1.04315 | 15126 ft | 389 kts | 108° |
| 2026-05-04 21:06 | 51.99849 | -1.00042 | 14980 ft | 390 kts | 97° |
| 2026-05-04 21:07 | 51.99689 | -0.95651 | 14727 ft | 390 kts | 90° |
| 2026-05-04 21:07 | 51.99674 | -0.91295 | 13597 ft | 395 kts | 90° |
| 2026-05-04 21:07 | 51.99665 | -0.86832 | 13216 ft | 384 kts | 90° |
| 2026-05-04 21:07 | 51.99659 | -0.82533 | 12967 ft | 381 kts | 90° |
| 2026-05-04 21:08 | 51.99655 | -0.78249 | 12716 ft | 379 kts | 90° |
| 2026-05-04 21:08 | 51.99651 | -0.73984 | 12466 ft | 377 kts | 90° |
| 2026-05-04 21:08 | 51.99643 | -0.69762 | 12213 ft | 368 kts | 90° |
| 2026-05-04 21:08 | 51.99636 | -0.65694 | 11961 ft | 353 kts | 90° |
| 2026-05-04 21:09 | 51.99630 | -0.61832 | 11714 ft | 341 kts | 90° |
| 2026-05-04 21:09 | 51.99626 | -0.58050 | 11462 ft | 330 kts | 90° |
| 2026-05-04 21:09 | 51.99620 | -0.54370 | 11214 ft | 321 kts | 90° |
| 2026-05-04 21:09 | 51.99609 | -0.50792 | 10964 ft | 313 kts | 90° |
| 2026-05-04 21:10 | 51.99595 | -0.47299 | 10715 ft | 306 kts | 90° |
| 2026-05-04 21:10 | 51.99582 | -0.43875 | 10464 ft | 300 kts | 90° |
| 2026-05-04 21:10 | 51.99569 | -0.40519 | 10214 ft | 294 kts | 90° |
| 2026-05-04 21:10 | 51.99549 | -0.37223 | 9965 ft | 291 kts | 91° |
| 2026-05-04 21:11 | 51.99515 | -0.33951 | 9833 ft | 290 kts | 91° |
| 2026-05-04 21:11 | 51.99475 | -0.30673 | 9707 ft | 290 kts | 91° |
| 2026-05-04 21:11 | 51.99432 | -0.27408 | 9582 ft | 289 kts | 91° |
| 2026-05-04 21:11 | 51.99390 | -0.24147 | 9456 ft | 286 kts | 91° |
| 2026-05-04 21:12 | 51.99349 | -0.20980 | 9329 ft | 277 kts | 91° |
| 2026-05-04 21:12 | 51.99308 | -0.17910 | 9203 ft | 268 kts | 91° |
| 2026-05-04 21:12 | 51.99269 | -0.14938 | 9077 ft | 259 kts | 91° |
| 2026-05-04 21:12 | 51.99233 | -0.12051 | 8951 ft | 254 kts | 91° |
| 2026-05-04 21:13 | 51.99194 | -0.09192 | 8818 ft | 253 kts | 91° |
| 2026-05-04 21:13 | 51.99152 | -0.06341 | 8705 ft | 252 kts | 91° |
| 2026-05-04 21:13 | 51.99112 | -0.03497 | 8576 ft | 252 kts | 91° |
| 2026-05-04 21:13 | 51.99073 | -0.00663 | 8450 ft | 251 kts | 91° |
| 2026-05-04 21:14 | 51.99146 | 0.02162 | 8326 ft | 250 kts | 75° |
| 2026-05-04 21:14 | 51.99930 | 0.04641 | 8194 ft | 249 kts | 47° |
| 2026-05-04 21:14 | 52.01307 | 0.06297 | 8078 ft | 248 kts | 21° |
| 2026-05-04 21:14 | 52.02981 | 0.06803 | 7952 ft | 246 kts | 355° |
| 2026-05-04 21:15 | 52.04595 | 0.06081 | 7828 ft | 245 kts | 329° |
| 2026-05-04 21:15 | 52.05863 | 0.04282 | 7703 ft | 244 kts | 304° |
| 2026-05-04 21:15 | 52.06528 | 0.01782 | 7581 ft | 243 kts | 279° |
| 2026-05-04 21:15 | 52.06467 | -0.00932 | 7453 ft | 242 kts | 253° |
| 2026-05-04 21:16 | 52.05687 | -0.03347 | 7222 ft | 243 kts | 227° |
| 2026-05-04 21:16 | 52.04345 | -0.04950 | 7096 ft | 242 kts | 203° |
| 2026-05-04 21:16 | 52.02703 | -0.05485 | 7038 ft | 243 kts | 178° |
| 2026-05-04 21:16 | 52.01012 | -0.05289 | 6979 ft | 244 kts | 182° |
| 2026-05-04 21:17 | 51.99323 | -0.05537 | 6938 ft | 244 kts | 187° |
| 2026-05-04 21:17 | 51.97645 | -0.05898 | 6815 ft | 243 kts | 188° |
| 2026-05-04 21:17 | 51.95955 | -0.06274 | 6499 ft | 242 kts | 188° |
| 2026-05-04 21:17 | 51.94303 | -0.06641 | 6157 ft | 243 kts | 188° |
| 2026-05-04 21:18 | 51.92625 | -0.07014 | 5806 ft | 244 kts | 188° |
| 2026-05-04 21:18 | 51.90934 | -0.07389 | 5455 ft | 245 kts | 188° |
| 2026-05-04 21:18 | 51.89238 | -0.07766 | 5104 ft | 246 kts | 188° |
| 2026-05-04 21:18 | 51.87534 | -0.07976 | 4839 ft | 243 kts | 174° |
| 2026-05-04 21:19 | 51.85953 | -0.07198 | 4655 ft | 237 kts | 149° |
| 2026-05-04 21:19 | 51.84719 | -0.05505 | 4483 ft | 229 kts | 135° |
| 2026-05-04 21:19 | 51.83611 | -0.03710 | 4229 ft | 220 kts | 135° |
| 2026-05-04 21:19 | 51.82571 | -0.02031 | 4040 ft | 205 kts | 135° |
| 2026-05-04 21:20 | 51.81569 | -0.00419 | 3675 ft | 202 kts | 135° |
| 2026-05-04 21:20 | 51.80573 | 0.01185 | 3316 ft | 202 kts | 135° |
| 2026-05-04 21:20 | 51.79581 | 0.02783 | 3078 ft | 201 kts | 135° |
| 2026-05-04 21:20 | 51.78604 | 0.04387 | 2819 ft | 200 kts | 130° |
| 2026-05-04 21:21 | 51.78086 | 0.06410 | 2563 ft | 198 kts | 90° |
| 2026-05-04 21:21 | 51.78496 | 0.08466 | 2466 ft | 194 kts | 51° |
| 2026-05-04 21:21 | 51.79444 | 0.09975 | 2410 ft | 190 kts | 41° |
| 2026-05-04 21:21 | 51.80418 | 0.11405 | 2242 ft | 187 kts | 42° |
| 2026-05-04 21:22 | 51.81306 | 0.12723 | 2044 ft | 160 kts | 42° |
| 2026-05-04 21:22 | 51.82079 | 0.13874 | 1849 ft | 145 kts | 42° |
| 2026-05-04 21:22 | 51.82806 | 0.14958 | 1672 ft | 140 kts | 42° |
| 2026-05-04 21:22 | 51.83516 | 0.16019 | 1476 ft | 138 kts | 42° |
| 2026-05-04 21:23 | 51.84218 | 0.17068 | 1301 ft | 137 kts | 42° |
| 2026-05-04 21:23 | 51.84918 | 0.18112 | 1112 ft | 137 kts | 42° |
| 2026-05-04 21:23 | 51.85615 | 0.19157 | 926 ft | 136 kts | 42° |
| 2026-05-04 21:23 | 51.86303 | 0.20180 | 745 ft | 136 kts | 42° |
| 2026-05-04 21:24 | 51.86993 | 0.21218 | 566 ft | 135 kts | 42° |
| 2026-05-04 21:24 | 51.87685 | 0.22250 | 388 ft | 135 kts | 42° |
| 2026-05-04 21:24 | 51.88305 | 0.23170 | 342 ft | 100 kts | 41° |
| 2026-05-04 21:24 | 51.88689 | 0.23747 | 344 ft | 49 kts | 44° |
| 2026-05-04 21:25 | 51.88839 | 0.24074 | 347 ft | 31 kts | 70° |
| 2026-05-04 21:25 | 51.88890 | 0.24279 | 354 ft | 16 kts | 72° |
| 2026-05-04 21:25 | 51.88914 | 0.24412 | 346 ft | 0 kts | 73° |
| 2026-05-04 21:25 | 51.88915 | 0.24418 | 347 ft | 2 kts | 73° |
| 2026-05-04 21:26 | 51.88919 | 0.24476 | 346 ft | 9 kts | 96° |
| 2026-05-04 21:26 | 51.88907 | 0.24506 | 351 ft | 1 kts | 145° |